Pantagruel — V7CL4 — position and weather

sailwx.info

Track history (hours):
 
Tides and Currents Weather Stations Pressure Air Temp Water Temp Dewpoint Dewpoint Depression Visibility Wind Speed Wind Dir Waves Ship Positions

Pantagruel

Last reported at 2017-Oct-23 16:40 UTC. Time now 2017-Nov-21 21:24 UTC.
Position N 39°59' W 029°53'.
Warning: this ship's position is 29 days out of date.

Length 289 m; draft 10.2 m.

Type: Cargo ship. MMSI: 538005281.

Date/timePositionNaut miles runAvg speedWind from/ knotsBaromVisibWave heightAir tempDewpointWater temp
2017-Oct-23 16:40N 39°59' W 029°53'2 9.8
2017-Oct-23 16:30N 39°58' W 029°50'610.0
2017-Oct-23 15:52N 39°57' W 029°42'6 9.6
2017-Oct-23 15:12N 39°56' W 029°34'2 9.3
2017-Oct-23 14:57N 39°55' W 029°31'4 9.6
2017-Oct-23 14:31N 39°54' W 029°26'5 9.5
2017-Oct-23 14:00N 39°54' W 029°20'5 9.7
2017-Oct-23 13:30N 39°53' W 029°13'5 9.5
2017-Oct-23 13:00N 39°52' W 029°07'5 9.4
2017-Oct-23 12:30N 39°52' W 029°01'5 9.3
2017-Oct-23 12:00N 39°51' W 028°55'5 9.2
2017-Oct-23 11:30N 39°50' W 028°49'5 9.3
2017-Oct-23 10:59N 39°49' W 028°43'5 9.0
2017-Oct-23 10:28N 39°48' W 028°37'4 9.0
2017-Oct-23 09:59N 39°47' W 028°32'6 8.8
2017-Oct-23 09:20N 39°46' W 028°25'5 8.8
2017-Oct-23 08:48N 39°45' W 028°19'3 9.0
2017-Oct-23 08:30N 39°44' W 028°15'4 8.9
2017-Oct-23 08:00N 39°43' W 028°09'5 9.3
2017-Oct-23 07:30N 39°43' W 028°03'5 9.3
2017-Oct-23 07:00N 39°42' W 027°58'9 9.9
2017-Oct-23 06:09N 39°40' W 027°47'1 9.9
2017-Oct-23 06:00N 39°40' W 027°45'5 9.6
2017-Oct-23 05:30N 39°39' W 027°39'5 9.5
2017-Oct-23 05:01N 39°38' W 027°33'5 9.9
2017-Oct-23 04:31N 39°37' W 027°26'5 9.8
2017-Oct-23 03:57N 39°36' W 027°20'1510.1
2017-Oct-23 02:26N 39°33' W 027°00'16110.9
2017-Oct-22 11:41N 38°55' W 023°39'  
2017-Oct-19 13:11N 35°60' W 009°34'16710.8
2017-Oct-18 21:44N 35°57' W 006°07'311.8
2017-Oct-18 21:30N 35°57' W 006°04'1111.9
2017-Oct-18 20:34N 35°58' W 005°50'111.7
2017-Oct-18 20:30N 35°58' W 005°49'611.2
2017-Oct-18 20:00N 35°58' W 005°42'5 9.5
2017-Oct-18 19:30N 35°58' W 005°37'4 8.3
2017-Oct-18 19:00N 35°59' W 005°31'4 7.1
2017-Oct-18 18:30N 36°00' W 005°27'4 7.0
2017-Oct-18 18:00N 36°02' W 005°24'4 8.2
2017-Oct-18 17:30N 36°06' W 005°22'1 1.5
2017-Oct-18 16:58N 36°06' W 005°21'0 0.4
2017-Oct-18 16:31N 36°06' W 005°21'0 0.0
2017-Oct-18 16:00N 36°06' W 005°21'0 0.1
2017-Oct-18 15:30N 36°06' W 005°21'0 0.0
2017-Oct-18 15:00N 36°06' W 005°21'0 0.2
2017-Oct-18 14:00N 36°06' W 005°21'0 0.1
2017-Oct-18 13:30N 36°06' W 005°21'0 0.1
2017-Oct-18 13:00N 36°06' W 005°21'0 0.1
2017-Oct-18 12:30N 36°06' W 005°21'0 0.3
2017-Oct-18 12:00N 36°06' W 005°21'0 0.1
2017-Oct-18 11:30N 36°06' W 005°21'0 0.4
2017-Oct-18 11:00N 36°06' W 005°21'0 0.0
2017-Oct-18 10:30N 36°06' W 005°21'0 0.1
2017-Oct-18 10:00N 36°06' W 005°21'0 0.0
2017-Oct-18 09:21N 36°06' W 005°21'0 0.1
2017-Oct-18 09:00N 36°06' W 005°21'0 0.1
2017-Oct-18 08:30N 36°06' W 005°22'0 0.1
2017-Oct-18 08:00N 36°06' W 005°21'0 0.2
2017-Oct-18 07:30N 36°06' W 005°21'0 0.2
2017-Oct-18 07:00N 36°06' W 005°21'0 0.1
2017-Oct-18 06:27N 36°06' W 005°21'0 0.2
2017-Oct-18 06:00N 36°06' W 005°21'0 0.0
2017-Oct-18 05:30N 36°06' W 005°21'0 0.1
2017-Oct-18 05:00N 36°06' W 005°21'0 0.1
2017-Oct-18 04:30N 36°06' W 005°21'0 0.1
2017-Oct-18 04:00N 36°06' W 005°21'0 0.1
2017-Oct-18 03:30N 36°06' W 005°22'0 0.1
2017-Oct-18 03:00N 36°06' W 005°22'0 0.0
2017-Oct-18 02:30N 36°06' W 005°22'0 0.1
2017-Oct-18 01:51N 36°06' W 005°22'0 0.1
2017-Oct-18 01:30N 36°06' W 005°22'0 0.1
2017-Oct-18 01:00N 36°06' W 005°22'0 0.1
2017-Oct-18 00:27N 36°06' W 005°22'0 0.1
2017-Oct-17 23:48N 36°06' W 005°22'0 0.2
2017-Oct-17 23:30N 36°06' W 005°22'0 0.3
2017-Oct-17 22:57N 36°06' W 005°22'0 0.3
2017-Oct-17 22:31N 36°06' W 005°22'0 0.4
2017-Oct-17 22:00N 36°06' W 005°22'1 1.9
2017-Oct-17 21:30N 36°05' W 005°22'2 4.7
2017-Oct-17 21:00N 36°05' W 005°19'3 6.3
2017-Oct-17 20:31N 36°05' W 005°15'4 7.5
2017-Oct-17 20:00N 36°05' W 005°10'28010.2
2017-Oct-16 16:30N 36°49' E 000°33'4910.6
2017-Oct-16 11:52N 37°00' E 001°33'410.2
2017-Oct-16 11:30N 37°01' E 001°37'1010.2
2017-Oct-16 10:32N 37°03' E 001°49'010.4
2017-Oct-16 10:30N 37°03' E 001°50'510.4
2017-Oct-16 09:59N 37°05' E 001°56'4010.4
2017-Oct-16 06:12N 37°14' E 002°45'210.3
2017-Oct-16 06:00N 37°15' E 002°47'610.3
2017-Oct-16 05:26N 37°16' E 002°54'410.2
2017-Oct-16 05:00N 37°17' E 002°60'510.3
2017-Oct-16 04:30N 37°17' E 003°06'510.2
2017-Oct-16 04:00N 37°18' E 003°12'610.2
2017-Oct-16 03:26N 37°18' E 003°20'510.2
2017-Oct-16 02:58N 37°19' E 003°26'510.2
2017-Oct-16 02:30N 37°19' E 003°32'610.2
2017-Oct-16 01:53N 37°19' E 003°39'910.2
2017-Oct-16 01:03N 37°20' E 003°50'010.4
2017-Oct-16 01:00N 37°20' E 003°51'610.3
2017-Oct-16 00:27N 37°21' E 003°58'510.2
2017-Oct-15 23:59N 37°21' E 004°04'43010.2
2017-Oct-14 06:01N 36°52' E 013°02'210.2
2017-Oct-14 05:49N 36°51' E 013°04'410.4
2017-Oct-14 05:28N 36°50' E 013°08'610.4
2017-Oct-14 04:51N 36°47' E 013°16'410.4
2017-Oct-14 04:30N 36°46' E 013°20'610.2
2017-Oct-14 03:56N 36°44' E 013°27'510.1
2017-Oct-14 03:24N 36°42' E 013°33'410.1
2017-Oct-14 03:00N 36°41' E 013°38'510.0
2017-Oct-14 02:30N 36°39' E 013°44'710.2
2017-Oct-14 01:48N 36°37' E 013°52'510.2
2017-Oct-14 01:16N 36°35' E 013°58'310.1
2017-Oct-14 01:00N 36°34' E 014°02'510.0
2017-Oct-14 00:30N 36°32' E 014°07'5 9.9
2017-Oct-14 00:00N 36°31' E 014°13'5 9.8
2017-Oct-13 23:30N 36°29' E 014°19'5 9.8
2017-Oct-13 23:00N 36°28' E 014°25'5 9.9
2017-Oct-13 22:30N 36°26' E 014°31'5 9.9
2017-Oct-13 22:00N 36°26' E 014°37'5 9.8
2017-Oct-13 21:30N 36°26' E 014°43'5 9.6
2017-Oct-13 21:00N 36°26' E 014°49'  
Track history (hours):
 
Tides and Currents Weather Stations Pressure Air Temp Water Temp Dewpoint Dewpoint Depression Visibility Wind Speed Wind Dir Waves Ship Positions

Pantagruel

Last reported at 2017-Oct-23 16:40 UTC. Time now 2017-Nov-21 21:24 UTC.
Position N 39°59' W 029°53'.
Warning: this ship's position is 29 days out of date.

Length 289 m; draft 10.2 m.

Type: Cargo ship. MMSI: 538005281.

Date/timePositionNaut miles runAvg speedWind from/ knotsBaromVisibWave heightAir tempDewpointWater temp
2017-Oct-23 16:40N 39°59' W 029°53'2 9.8
2017-Oct-23 16:30N 39°58' W 029°50'610.0
2017-Oct-23 15:52N 39°57' W 029°42'6 9.6
2017-Oct-23 15:12N 39°56' W 029°34'2 9.3
2017-Oct-23 14:57N 39°55' W 029°31'4 9.6
2017-Oct-23 14:31N 39°54' W 029°26'5 9.5
2017-Oct-23 14:00N 39°54' W 029°20'5 9.7
2017-Oct-23 13:30N 39°53' W 029°13'5 9.5
2017-Oct-23 13:00N 39°52' W 029°07'5 9.4
2017-Oct-23 12:30N 39°52' W 029°01'5 9.3
2017-Oct-23 12:00N 39°51' W 028°55'5 9.2
2017-Oct-23 11:30N 39°50' W 028°49'5 9.3
2017-Oct-23 10:59N 39°49' W 028°43'5 9.0
2017-Oct-23 10:28N 39°48' W 028°37'4 9.0
2017-Oct-23 09:59N 39°47' W 028°32'6 8.8
2017-Oct-23 09:20N 39°46' W 028°25'5 8.8
2017-Oct-23 08:48N 39°45' W 028°19'3 9.0
2017-Oct-23 08:30N 39°44' W 028°15'4 8.9
2017-Oct-23 08:00N 39°43' W 028°09'5 9.3
2017-Oct-23 07:30N 39°43' W 028°03'5 9.3
2017-Oct-23 07:00N 39°42' W 027°58'9 9.9
2017-Oct-23 06:09N 39°40' W 027°47'1 9.9
2017-Oct-23 06:00N 39°40' W 027°45'5 9.6
2017-Oct-23 05:30N 39°39' W 027°39'5 9.5
2017-Oct-23 05:01N 39°38' W 027°33'5 9.9
2017-Oct-23 04:31N 39°37' W 027°26'5 9.8
2017-Oct-23 03:57N 39°36' W 027°20'1510.1
2017-Oct-23 02:26N 39°33' W 027°00'16110.9
2017-Oct-22 11:41N 38°55' W 023°39'  
2017-Oct-19 13:11N 35°60' W 009°34'16710.8
2017-Oct-18 21:44N 35°57' W 006°07'311.8
2017-Oct-18 21:30N 35°57' W 006°04'1111.9
2017-Oct-18 20:34N 35°58' W 005°50'111.7
2017-Oct-18 20:30N 35°58' W 005°49'611.2
2017-Oct-18 20:00N 35°58' W 005°42'5 9.5
2017-Oct-18 19:30N 35°58' W 005°37'4 8.3
2017-Oct-18 19:00N 35°59' W 005°31'4 7.1
2017-Oct-18 18:30N 36°00' W 005°27'4 7.0
2017-Oct-18 18:00N 36°02' W 005°24'4 8.2
2017-Oct-18 17:30N 36°06' W 005°22'1 1.5
2017-Oct-18 16:58N 36°06' W 005°21'0 0.4
2017-Oct-18 16:31N 36°06' W 005°21'0 0.0
2017-Oct-18 16:00N 36°06' W 005°21'0 0.1
2017-Oct-18 15:30N 36°06' W 005°21'0 0.0
2017-Oct-18 15:00N 36°06' W 005°21'0 0.2
2017-Oct-18 14:00N 36°06' W 005°21'0 0.1
2017-Oct-18 13:30N 36°06' W 005°21'0 0.1
2017-Oct-18 13:00N 36°06' W 005°21'0 0.1
2017-Oct-18 12:30N 36°06' W 005°21'0 0.3
2017-Oct-18 12:00N 36°06' W 005°21'0 0.1
2017-Oct-18 11:30N 36°06' W 005°21'0 0.4
2017-Oct-18 11:00N 36°06' W 005°21'0 0.0
2017-Oct-18 10:30N 36°06' W 005°21'0 0.1
2017-Oct-18 10:00N 36°06' W 005°21'0 0.0
2017-Oct-18 09:21N 36°06' W 005°21'0 0.1
2017-Oct-18 09:00N 36°06' W 005°21'0 0.1
2017-Oct-18 08:30N 36°06' W 005°22'0 0.1
2017-Oct-18 08:00N 36°06' W 005°21'0 0.2
2017-Oct-18 07:30N 36°06' W 005°21'0 0.2
2017-Oct-18 07:00N 36°06' W 005°21'0 0.1
2017-Oct-18 06:27N 36°06' W 005°21'0 0.2
2017-Oct-18 06:00N 36°06' W 005°21'0 0.0
2017-Oct-18 05:30N 36°06' W 005°21'0 0.1
2017-Oct-18 05:00N 36°06' W 005°21'0 0.1
2017-Oct-18 04:30N 36°06' W 005°21'0 0.1
2017-Oct-18 04:00N 36°06' W 005°21'0 0.1
2017-Oct-18 03:30N 36°06' W 005°22'0 0.1
2017-Oct-18 03:00N 36°06' W 005°22'0 0.0
2017-Oct-18 02:30N 36°06' W 005°22'0 0.1
2017-Oct-18 01:51N 36°06' W 005°22'0 0.1
2017-Oct-18 01:30N 36°06' W 005°22'0 0.1
2017-Oct-18 01:00N 36°06' W 005°22'0 0.1
2017-Oct-18 00:27N 36°06' W 005°22'0 0.1
2017-Oct-17 23:48N 36°06' W 005°22'0 0.2
2017-Oct-17 23:30N 36°06' W 005°22'0 0.3
2017-Oct-17 22:57N 36°06' W 005°22'0 0.3
2017-Oct-17 22:31N 36°06' W 005°22'0 0.4
2017-Oct-17 22:00N 36°06' W 005°22'1 1.9
2017-Oct-17 21:30N 36°05' W 005°22'2 4.7
2017-Oct-17 21:00N 36°05' W 005°19'3 6.3
2017-Oct-17 20:31N 36°05' W 005°15'4 7.5
2017-Oct-17 20:00N 36°05' W 005°10'28010.2
2017-Oct-16 16:30N 36°49' E 000°33'4910.6
2017-Oct-16 11:52N 37°00' E 001°33'410.2
2017-Oct-16 11:30N 37°01' E 001°37'1010.2
2017-Oct-16 10:32N 37°03' E 001°49'010.4
2017-Oct-16 10:30N 37°03' E 001°50'510.4
2017-Oct-16 09:59N 37°05' E 001°56'4010.4
2017-Oct-16 06:12N 37°14' E 002°45'210.3
2017-Oct-16 06:00N 37°15' E 002°47'610.3
2017-Oct-16 05:26N 37°16' E 002°54'410.2
2017-Oct-16 05:00N 37°17' E 002°60'510.3
2017-Oct-16 04:30N 37°17' E 003°06'510.2
2017-Oct-16 04:00N 37°18' E 003°12'610.2
2017-Oct-16 03:26N 37°18' E 003°20'510.2
2017-Oct-16 02:58N 37°19' E 003°26'510.2
2017-Oct-16 02:30N 37°19' E 003°32'610.2
2017-Oct-16 01:53N 37°19' E 003°39'910.2
2017-Oct-16 01:03N 37°20' E 003°50'010.4
2017-Oct-16 01:00N 37°20' E 003°51'610.3
2017-Oct-16 00:27N 37°21' E 003°58'510.2
2017-Oct-15 23:59N 37°21' E 004°04'43010.2
2017-Oct-14 06:01N 36°52' E 013°02'210.2
2017-Oct-14 05:49N 36°51' E 013°04'410.4
2017-Oct-14 05:28N 36°50' E 013°08'610.4
2017-Oct-14 04:51N 36°47' E 013°16'410.4
2017-Oct-14 04:30N 36°46' E 013°20'610.2
2017-Oct-14 03:56N 36°44' E 013°27'510.1
2017-Oct-14 03:24N 36°42' E 013°33'410.1
2017-Oct-14 03:00N 36°41' E 013°38'510.0
2017-Oct-14 02:30N 36°39' E 013°44'710.2
2017-Oct-14 01:48N 36°37' E 013°52'510.2
2017-Oct-14 01:16N 36°35' E 013°58'310.1
2017-Oct-14 01:00N 36°34' E 014°02'510.0
2017-Oct-14 00:30N 36°32' E 014°07'5 9.9
2017-Oct-14 00:00N 36°31' E 014°13'5 9.8
2017-Oct-13 23:30N 36°29' E 014°19'5 9.8
2017-Oct-13 23:00N 36°28' E 014°25'5 9.9
2017-Oct-13 22:30N 36°26' E 014°31'5 9.9
2017-Oct-13 22:00N 36°26' E 014°37'5 9.8
2017-Oct-13 21:30N 36°26' E 014°43'5 9.6
2017-Oct-13 21:00N 36°26' E 014°49'  

Dump ship's entire track history